Time;durP1;ratioP1;P1;durP2;ratioP2;P2;SDS_P1;SDS_P2;PMS_P1;PMS_P2;Temp;Humidity;BMP_temperature;BMP_pressure;BME280_temperature;BME280_humidity;BME280_pressure;Samples;Min_cycle;Max_cycle;Signal;HPM_P1;HPM_P2
2022/09/22 00:00:00;;;;;;;4.53;1.50;;;18.40;52.50;;;;;;6130363;28;20039;-79
2022/09/22 00:03:01;;;;;;;4.40;1.80;;;18.40;52.60;;;;;;6151042;28;20031;-79
2022/09/22 00:06:14;;;;;;;6.50;2.00;;;18.40;52.70;;;;;;6149353;28;20042;-79
2022/09/22 00:09:18;;;;;;;4.80;1.88;;;18.30;52.80;;;;;;6135248;28;20090;-79
2022/09/22 00:12:20;;;;;;;2.80;1.77;;;18.30;52.80;;;;;;6149148;28;20039;-80
2022/09/22 00:15:22;;;;;;;2.78;1.50;;;18.30;52.80;;;;;;6148722;28;20047;-79
2022/09/22 00:18:23;;;;;;;5.70;1.80;;;18.30;52.80;;;;;;6148737;28;20032;-79
2022/09/22 00:21:29;;;;;;;4.65;1.55;;;18.30;52.80;;;;;;6162786;28;20066;-79
2022/09/22 00:24:31;;;;;;;6.13;1.65;;;18.30;52.90;;;;;;6148842;28;20115;-79
2022/09/22 00:27:32;;;;;;;11.25;1.73;;;18.20;53.00;;;;;;6148772;28;20047;-79
2022/09/22 00:30:33;;;;;;;3.88;1.65;;;18.20;53.10;;;;;;6155927;28;20046;-79
2022/09/22 00:33:34;;;;;;;3.92;1.67;;;18.10;53.20;;;;;;6154988;28;20039;-79
2022/09/22 00:36:35;;;;;;;5.72;2.03;;;18.10;53.30;;;;;;6150800;28;20028;-78
2022/09/22 00:39:36;;;;;;;3.33;1.60;;;18.00;53.20;;;;;;6153353;28;20035;-78
2022/09/22 00:42:37;;;;;;;7.95;1.67;;;18.00;53.20;;;;;;6147207;28;20031;-80
2022/09/22 00:45:39;;;;;;;5.18;1.63;;;18.00;53.10;;;;;;6149760;28;20063;-80
2022/09/22 00:48:45;;;;;;;10.80;1.95;;;18.00;53.10;;;;;;6150030;28;20031;-80
2022/09/22 00:51:47;;;;;;;4.07;1.70;;;18.00;53.10;;;;;;6146417;28;20475;-79
2022/09/22 00:54:51;;;;;;;3.63;1.77;;;17.90;53.20;;;;;;6149837;28;20057;-80
2022/09/22 00:57:53;;;;;;;7.22;1.58;;;17.90;53.30;;;;;;6153931;28;20094;-79
2022/09/22 01:00:55;;;;;;;10.35;1.90;;;17.90;53.40;;;;;;6142127;28;20034;-80
2022/09/22 01:03:56;;;;;;;2.40;1.58;;;17.80;53.50;;;;;;6153513;28;20468;-79
2022/09/22 01:06:58;;;;;;;4.38;1.77;;;17.80;53.60;;;;;;6146815;28;20102;-79
2022/09/22 01:09:59;;;;;;;5.10;2.05;;;17.80;53.70;;;;;;6148371;28;20051;-79
2022/09/22 01:13:28;;;;;;;3.97;1.83;;;17.80;53.80;;;;;;6146918;28;20063;-79
2022/09/22 01:16:59;;;;;;;6.43;1.92;;;17.70;53.90;;;;;;6145154;28;20035;-79
2022/09/22 01:20:22;;;;;;;5.45;1.55;;;17.70;54.10;;;;;;6147071;28;20047;-80
2022/09/22 01:23:56;;;;;;;5.60;1.70;;;17.60;54.10;;;;;;6145723;28;20047;-79
2022/09/22 01:27:15;;;;;;;2.85;1.73;;;17.60;54.30;;;;;;6143595;28;20039;-80
2022/09/22 01:30:30;;;;;;;;;;;17.50;54.30;;;;;;6155985;28;20038;-80
2022/09/22 01:33:57;;;;;;;6.13;1.83;;;17.50;54.40;;;;;;6146123;28;19929;-79
2022/09/22 01:37:08;;;;;;;6.65;1.90;;;17.50;54.50;;;;;;6070515;29;20052;-79
2022/09/22 01:40:41;;;;;;;2.97;1.73;;;17.50;54.50;;;;;;6088386;29;20044;-79
2022/09/22 01:43:57;;;;;;;3.50;1.75;;;17.40;54.60;;;;;;6078166;29;20454;-79
2022/09/22 01:47:18;;;;;;;8.55;2.10;;;17.40;54.70;;;;;;6074446;29;20048;-79
2022/09/22 01:50:23;;;;;;;4.63;2.10;;;17.40;54.80;;;;;;6075786;29;20525;-78
2022/09/22 01:53:30;;;;;;;5.45;1.80;;;17.40;54.90;;;;;;6058595;29;20044;-79
2022/09/22 01:56:33;;;;;;;4.47;1.90;;;17.40;55.00;;;;;;6068267;29;20180;-79
2022/09/22 01:59:38;;;;;;;4.32;2.03;;;17.30;54.90;;;;;;6052102;29;20029;-79
2022/09/22 02:02:56;;;;;;;4.75;1.73;;;17.40;55.00;;;;;;6069665;29;20044;-79
2022/09/22 02:06:03;;;;;;;4.00;1.67;;;17.40;55.00;;;;;;6066544;29;20064;-79
2022/09/22 02:09:17;;;;;;;5.72;2.13;;;17.30;54.90;;;;;;6083684;29;20056;-79
2022/09/22 02:12:18;;;;;;;4.57;2.38;;;17.30;55.00;;;;;;6082392;28;20040;-79
2022/09/22 02:19:09;;;;;;;2.67;1.88;;;17.20;55.30;;;;;;6160495;28;20050;-79
2022/09/22 02:22:11;;;;;;;4.25;2.03;;;17.20;55.50;;;;;;6149199;28;20038;-80
2022/09/22 02:25:13;;;;;;;10.15;2.70;;;17.20;55.70;;;;;;6181327;28;20392;-79
2022/09/22 02:28:17;;;;;;;6.10;2.38;;;17.10;55.70;;;;;;6154635;28;20050;-79
2022/09/22 02:31:23;;;;;;;4.72;1.95;;;17.10;55.60;;;;;;6166291;28;20039;-79
2022/09/22 02:34:25;;;;;;;3.03;2.10;;;17.10;55.70;;;;;;6151104;28;20062;-79
2022/09/22 02:38:04;;;;;;;5.20;2.03;;;17.10;55.70;;;;;;6152465;28;20031;-79
2022/09/22 02:41:17;;;;;;;3.25;1.63;;;17.10;55.70;;;;;;6141915;28;20055;-79
2022/09/22 02:44:24;;;;;;;8.48;2.00;;;17.10;55.70;;;;;;6160436;28;20057;-79
2022/09/22 02:47:38;;;;;;;2.25;1.35;;;17.10;55.80;;;;;;6153334;28;20101;-79
2022/09/22 02:50:41;;;;;;;8.38;2.30;;;17.00;55.80;;;;;;6170543;28;20105;-79
2022/09/22 02:53:42;;;;;;;2.83;1.60;;;17.00;55.90;;;;;;6168515;28;20046;-80
2022/09/22 02:56:43;;;;;;;7.25;2.10;;;17.00;56.00;;;;;;6151282;28;20031;-79
2022/09/22 02:59:44;;;;;;;6.72;2.08;;;17.00;56.20;;;;;;6156806;28;20072;-79
2022/09/22 03:02:45;;;;;;;4.30;1.92;;;16.90;56.20;;;;;;6151743;28;20057;-78
2022/09/22 03:05:46;;;;;;;5.07;2.00;;;16.90;56.30;;;;;;6156783;28;20054;-79
2022/09/22 03:08:47;;;;;;;11.38;2.33;;;16.80;56.40;;;;;;6168643;28;20058;-78
2022/09/22 03:11:48;;;;;;;3.08;1.73;;;16.80;56.50;;;;;;6157425;28;20035;-78
2022/09/22 03:14:49;;;;;;;4.68;1.90;;;16.80;56.50;;;;;;6150906;28;20047;-79
2022/09/22 03:17:50;;;;;;;5.68;1.92;;;16.70;56.50;;;;;;6150535;28;20043;-78
2022/09/22 03:20:51;;;;;;;4.22;1.95;;;16.70;56.50;;;;;;6150088;28;20380;-78
2022/09/22 03:23:52;;;;;;;3.47;1.85;;;16.70;56.60;;;;;;6162098;28;20038;-78
2022/09/22 03:26:53;;;;;;;4.55;2.10;;;16.60;56.60;;;;;;6172857;28;20039;-79
2022/09/22 03:29:54;;;;;;;5.90;2.17;;;16.60;56.60;;;;;;6166331;28;20054;-78
2022/09/22 03:32:55;;;;;;;9.55;1.98;;;16.60;56.80;;;;;;6161073;28;20465;-79
2022/09/22 03:35:56;;;;;;;4.57;1.95;;;16.50;56.80;;;;;;6149229;28;20043;-78
2022/09/22 03:38:58;;;;;;;2.50;1.60;;;16.50;56.90;;;;;;6147243;28;20035;-79
2022/09/22 03:41:59;;;;;;;4.03;1.80;;;16.40;57.10;;;;;;6131896;28;20039;-79
2022/09/22 03:45:00;;;;;;;2.65;1.90;;;16.40;57.30;;;;;;6153988;28;20035;-78
2022/09/22 03:48:01;;;;;;;4.75;2.25;;;16.30;57.40;;;;;;6170710;28;20041;-78
2022/09/22 03:51:03;;;;;;;2.75;1.80;;;16.30;57.50;;;;;;6168919;28;20338;-79
2022/09/22 03:54:04;;;;;;;5.40;2.28;;;16.20;57.50;;;;;;6171076;28;20117;-79
2022/09/22 03:57:06;;;;;;;4.55;2.10;;;16.20;58.20;;;;;;6173317;28;20054;-78
2022/09/22 04:00:08;;;;;;;4.95;1.77;;;16.10;57.70;;;;;;6165088;28;20106;-80
2022/09/22 04:03:15;;;;;;;5.47;2.47;;;16.10;57.80;;;;;;6158736;28;20041;-79
2022/09/22 04:06:16;;;;;;;3.15;2.17;;;16.10;57.90;;;;;;6156078;28;20035;-78
2022/09/22 04:09:17;;;;;;;5.13;1.95;;;16.00;57.90;;;;;;6155819;28;20075;-78
2022/09/22 04:12:18;;;;;;;8.40;2.95;;;16.00;58.00;;;;;;6161022;28;20031;-78
2022/09/22 04:15:19;;;;;;;2.20;1.67;;;16.00;58.00;;;;;;6149058;28;20058;-79
2022/09/22 04:18:20;;;;;;;6.68;2.63;;;16.00;58.20;;;;;;6144519;28;20170;-79
2022/09/22 04:21:22;;;;;;;3.97;1.70;;;15.90;58.30;;;;;;6147919;28;20050;-79
2022/09/22 04:24:23;;;;;;;3.20;2.10;;;15.90;58.40;;;;;;6156921;28;20031;-79
2022/09/22 04:27:24;;;;;;;5.78;2.47;;;15.90;58.40;;;;;;6190755;28;20035;-79
2022/09/22 04:30:25;;;;;;;2.92;2.10;;;15.90;58.30;;;;;;6164336;28;20110;-79
2022/09/22 04:33:26;;;;;;;7.57;2.30;;;15.80;58.20;;;;;;6149829;28;20666;-78
2022/09/22 04:36:27;;;;;;;6.20;2.42;;;15.80;58.20;;;;;;6148224;28;20125;-79
2022/09/22 04:39:28;;;;;;;3.95;2.10;;;15.80;58.20;;;;;;6149571;28;20483;-79
2022/09/22 04:42:29;;;;;;;4.68;2.25;;;15.80;58.10;;;;;;6149282;28;20299;-79
2022/09/22 04:45:31;;;;;;;3.30;2.10;;;15.80;58.10;;;;;;6148539;28;20074;-79
2022/09/22 04:48:32;;;;;;;4.70;2.20;;;15.80;58.10;;;;;;6149182;28;20477;-78
2022/09/22 04:51:33;;;;;;;4.63;2.40;;;15.80;58.00;;;;;;6149067;28;20429;-79
2022/09/22 04:54:34;;;;;;;3.78;2.13;;;15.80;58.10;;;;;;6149156;28;20035;-79
2022/09/22 04:57:36;;;;;;;5.13;3.15;;;15.80;58.00;;;;;;6144827;28;20038;-79
2022/09/22 05:00:37;;;;;;;10.60;2.60;;;15.80;58.10;;;;;;6139590;28;20118;-80
2022/09/22 05:03:38;;;;;;;7.00;2.40;;;15.80;58.00;;;;;;6165702;28;20043;-80
2022/09/22 05:06:41;;;;;;;12.18;2.38;;;15.80;57.90;;;;;;6171514;28;20468;-79
2022/09/22 05:09:42;;;;;;;6.22;2.63;;;15.70;57.70;;;;;;6148379;28;20491;-79
2022/09/22 05:12:43;;;;;;;5.93;2.92;;;15.70;57.70;;;;;;6157654;28;20031;-79
2022/09/22 05:15:44;;;;;;;7.35;2.35;;;15.70;57.70;;;;;;6169152;28;20105;-79
2022/09/22 05:18:49;;;;;;;7.43;2.72;;;15.60;57.70;;;;;;6147750;28;20118;-78
2022/09/22 05:21:51;;;;;;;3.10;2.17;;;15.70;57.60;;;;;;6153447;28;20027;-80
2022/09/22 05:24:52;;;;;;;7.47;2.47;;;15.70;57.60;;;;;;6152702;28;20047;-79
2022/09/22 05:27:55;;;;;;;6.00;2.85;;;15.70;57.50;;;;;;6160553;28;20039;-80
2022/09/22 05:30:56;;;;;;;7.60;2.67;;;15.70;57.50;;;;;;6159149;28;20432;-80
2022/09/22 05:33:57;;;;;;;6.43;2.65;;;15.70;57.40;;;;;;6159051;28;20039;-79
2022/09/22 05:36:58;;;;;;;5.30;2.55;;;15.70;57.40;;;;;;6152290;28;20054;-80
2022/09/22 05:39:59;;;;;;;4.43;2.22;;;15.70;57.30;;;;;;6151031;28;20106;-80
2022/09/22 05:43:00;;;;;;;7.50;2.42;;;15.70;57.30;;;;;;6150650;28;20047;-79
2022/09/22 05:46:01;;;;;;;5.30;2.50;;;15.60;57.20;;;;;;6176415;28;20043;-79
2022/09/22 05:49:02;;;;;;;7.50;2.97;;;15.60;57.10;;;;;;6159906;28;20039;-79
2022/09/22 05:52:05;;;;;;;6.57;2.45;;;15.60;57.40;;;;;;6160776;28;20695;-78
2022/09/22 05:55:07;;;;;;;11.55;2.65;;;15.60;57.10;;;;;;6152445;28;20035;-79
2022/09/22 05:58:10;;;;;;;9.32;2.33;;;15.60;57.10;;;;;;6152665;28;20476;-79
2022/09/22 06:01:11;;;;;;;4.28;2.05;;;15.60;57.00;;;;;;6144367;28;20058;-80
2022/09/22 06:04:12;;;;;;;3.88;2.20;;;15.50;57.00;;;;;;6152351;28;20043;-81
2022/09/22 06:07:15;;;;;;;12.23;2.55;;;15.50;57.20;;;;;;6152802;28;20051;-80
2022/09/22 06:10:16;;;;;;;3.67;2.33;;;15.50;57.40;;;;;;6174597;28;20460;-79
2022/09/22 06:13:17;;;;;;;14.68;2.80;;;15.40;57.50;;;;;;6155608;28;20043;-80
2022/09/22 06:16:18;;;;;;;6.63;2.55;;;15.40;57.70;;;;;;6140454;28;20026;-79
2022/09/22 06:19:20;;;;;;;3.95;2.00;;;15.30;57.90;;;;;;6171404;28;20338;-80
2022/09/22 06:22:22;;;;;;;8.40;2.75;;;15.30;58.10;;;;;;6151162;28;20027;-79
2022/09/22 06:25:24;;;;;;;6.55;2.00;;;15.20;58.20;;;;;;6169136;28;20043;-80
2022/09/22 06:28:25;;;;;;;4.57;2.47;;;15.20;58.20;;;;;;6170506;28;20038;-80
2022/09/22 06:31:26;;;;;;;4.65;2.65;;;15.20;58.30;;;;;;6156840;28;20031;-80
2022/09/22 06:34:27;;;;;;;2.85;2.20;;;15.20;58.30;;;;;;6149772;28;20031;-80
2022/09/22 06:37:28;;;;;;;7.95;3.20;;;15.20;58.30;;;;;;6150117;28;20487;-80
2022/09/22 06:40:31;;;;;;;4.07;2.55;;;15.20;58.40;;;;;;6152732;28;20066;-80
2022/09/22 06:43:36;;;;;;;5.47;2.63;;;15.20;58.30;;;;;;6152753;28;20049;-80
2022/09/22 06:46:38;;;;;;;9.70;3.25;;;15.20;58.20;;;;;;6152675;28;20050;-79
2022/09/22 06:49:41;;;;;;;7.05;2.92;;;15.30;58.20;;;;;;6152794;28;20053;-79
2022/09/22 06:52:43;;;;;;;7.63;2.85;;;15.30;58.10;;;;;;6158693;28;20030;-79
2022/09/22 06:55:44;;;;;;;6.30;2.85;;;15.30;58.70;;;;;;6155371;28;20054;-81
2022/09/22 06:58:45;;;;;;;5.53;3.10;;;15.40;58.10;;;;;;6157159;28;20051;-80
2022/09/22 07:01:46;;;;;;;8.02;3.28;;;15.40;58.10;;;;;;6154620;28;20042;-80
2022/09/22 07:04:47;;;;;;;4.82;3.03;;;15.50;58.00;;;;;;6151425;28;20054;-80
2022/09/22 07:07:48;;;;;;;5.35;2.60;;;15.60;58.00;;;;;;6163700;28;20058;-80
2022/09/22 07:11:03;;;;;;;7.28;3.08;;;15.70;57.80;;;;;;6171689;28;20069;-80
2022/09/22 07:14:04;;;;;;;5.22;2.55;;;15.80;57.60;;;;;;6156443;28;20106;-80
2022/09/22 07:17:05;;;;;;;3.00;2.10;;;15.90;57.40;;;;;;6136657;28;20472;-78
2022/09/22 07:20:07;;;;;;;10.70;2.80;;;16.00;57.20;;;;;;6149623;28;20117;-80
2022/09/22 07:23:10;;;;;;;8.52;2.70;;;16.10;57.10;;;;;;6148140;28;20126;-80
2022/09/22 07:26:14;;;;;;;10.20;2.90;;;16.20;56.80;;;;;;6148322;28;20039;-80
2022/09/22 07:29:16;;;;;;;8.88;2.42;;;16.20;56.60;;;;;;6161060;28;20066;-80
2022/09/22 07:32:20;;;;;;;5.22;2.85;;;16.30;56.40;;;;;;6149594;28;20043;-80
2022/09/22 07:35:22;;;;;;;10.52;3.10;;;16.40;56.10;;;;;;6149443;28;20605;-79
2022/09/22 07:38:29;;;;;;;6.63;3.00;;;16.50;55.80;;;;;;6160076;28;20053;-79
2022/09/22 07:41:32;;;;;;;30.42;3.13;;;16.60;55.50;;;;;;6183800;28;20062;-80
2022/09/22 07:51:21;;;;;;;7.47;2.75;;;16.90;54.70;;;;;;6123628;28;20054;-80
2022/09/22 07:54:23;;;;;;;7.90;3.38;;;17.00;54.40;;;;;;6148552;28;20047;-80
2022/09/22 07:57:25;;;;;;;14.50;2.33;;;17.10;54.10;;;;;;6147370;28;20439;-79
2022/09/22 08:00:31;;;;;;;6.22;2.17;;;17.20;54.00;;;;;;6141456;28;20668;-80
2022/09/22 08:03:36;;;;;;;8.38;2.55;;;17.40;53.70;;;;;;6161737;28;20518;-80
2022/09/22 08:06:37;;;;;;;3.30;1.90;;;17.50;53.20;;;;;;6170442;28;20170;-80
2022/09/22 08:09:39;;;;;;;3.85;1.70;;;17.60;52.80;;;;;;6170573;28;20043;-80
2022/09/22 08:12:41;;;;;;;4.35;2.55;;;17.70;52.70;;;;;;6131047;28;20035;-81
2022/09/22 08:15:43;;;;;;;5.82;2.15;;;17.90;52.50;;;;;;6155692;28;20039;-80
2022/09/22 08:18:52;;;;;;;3.78;1.90;;;18.10;52.10;;;;;;6147392;28;20047;-80
2022/09/22 08:21:53;;;;;;;4.13;1.88;;;18.20;51.90;;;;;;6141428;28;20043;-79
2022/09/22 08:24:55;;;;;;;13.88;2.50;;;18.40;51.50;;;;;;6150027;28;20067;-79
2022/09/22 08:27:56;;;;;;;6.43;2.15;;;18.50;51.10;;;;;;6157164;28;20046;-80
2022/09/22 08:30:58;;;;;;;3.17;2.10;;;18.60;50.80;;;;;;6162391;28;20047;-82
2022/09/22 08:34:00;;;;;;;17.00;2.63;;;18.70;50.30;;;;;;6147753;28;20050;-81
2022/09/22 08:37:01;;;;;;;9.13;2.67;;;18.80;50.20;;;;;;6164125;28;20046;-79
2022/09/22 08:40:03;;;;;;;2.97;1.90;;;19.00;50.00;;;;;;6152794;28;20062;-79
2022/09/22 08:43:04;;;;;;;10.15;2.30;;;19.10;49.80;;;;;;6158876;28;20413;-81
2022/09/22 08:46:06;;;;;;;5.10;2.00;;;19.30;49.40;;;;;;6143695;28;20031;-80
2022/09/22 08:52:49;;;;;;;5.00;2.20;;;19.50;48.90;;;;;;6158261;28;20045;-80
2022/09/22 08:56:17;;;;;;;3.67;2.17;;;19.60;48.60;;;;;;6144632;28;20034;-81
2022/09/22 08:59:43;;;;;;;7.68;2.05;;;19.60;48.40;;;;;;6152848;28;20468;-80
2022/09/22 09:03:15;;;;;;;9.70;1.85;;;19.80;48.20;;;;;;6142565;28;20047;-80
2022/09/22 09:07:03;;;;;;;11.60;2.40;;;19.90;47.60;;;;;;6138480;28;21493;-80
2022/09/22 09:10:35;;;;;;;7.57;2.00;;;19.90;47.30;;;;;;6093397;29;20060;-79
2022/09/22 09:13:50;;;;;;;9.75;4.57;;;20.00;47.30;;;;;;6082760;29;20203;-79
2022/09/22 09:17:00;;;;;;;13.02;3.35;;;20.20;47.00;;;;;;6094570;29;20094;-80
2022/09/22 09:20:10;;;;;;;4.28;2.35;;;20.20;47.30;;;;;;6080666;29;20096;-81
2022/09/22 09:23:34;;;;;;;4.50;2.08;;;20.20;46.70;;;;;;6085182;29;20446;-79
2022/09/22 09:26:35;;;;;;;4.50;2.00;;;20.30;46.70;;;;;;6096035;29;20040;-81
2022/09/22 09:29:50;;;;;;;5.28;2.30;;;20.40;46.30;;;;;;6078319;29;20039;-82
2022/09/22 09:33:01;;;;;;;3.85;1.92;;;20.50;46.20;;;;;;6055963;29;20056;-81
2022/09/22 09:36:03;;;;;;;5.20;1.80;;;20.50;45.50;;;;;;6070756;29;20054;-80
2022/09/22 09:39:15;;;;;;;9.27;2.17;;;20.50;45.40;;;;;;6094704;29;20044;-80
2022/09/22 09:42:30;;;;;;;9.70;1.80;;;20.50;45.40;;;;;;6073786;29;20055;-80
2022/09/22 09:45:42;;;;;;;5.97;2.65;;;20.60;45.40;;;;;;6101742;28;20039;-80
2022/09/22 09:49:00;;;;;;;6.32;2.30;;;20.60;44.80;;;;;;6142315;28;20035;-80
2022/09/22 09:52:07;;;;;;;5.88;2.35;;;20.60;44.50;;;;;;6141293;28;20046;-82
2022/09/22 09:55:25;;;;;;;7.00;2.03;;;20.60;44.30;;;;;;6136212;28;20039;-80
2022/09/22 10:01:53;;;;;;;3.47;1.80;;;20.80;44.40;;;;;;6151861;28;20035;-81
2022/09/22 10:05:03;;;;;;;10.13;5.28;;;20.90;44.30;;;;;;6152287;28;20333;-81
2022/09/22 10:08:19;;;;;;;7.05;2.45;;;21.00;43.80;;;;;;6147756;28;20090;-78
2022/09/22 10:11:30;;;;;;;6.78;1.60;;;21.10;43.30;;;;;;6142695;28;20043;-80
2022/09/22 10:14:34;;;;;;;7.00;1.77;;;21.20;43.10;;;;;;6164549;28;20034;-80
2022/09/22 10:17:43;;;;;;;6.07;3.22;;;21.20;43.20;;;;;;6166638;28;20436;-80
2022/09/22 10:20:44;;;;;;;5.93;2.60;;;21.30;42.80;;;;;;6152829;28;20031;-80
2022/09/22 10:23:53;;;;;;;5.43;2.75;;;21.50;42.90;;;;;;6156916;28;20054;-80
2022/09/22 10:26:55;;;;;;;6.32;2.83;;;21.70;42.80;;;;;;6127450;28;20039;-81
2022/09/22 10:30:21;;;;;;;6.93;2.58;;;22.00;42.40;;;;;;6151987;28;20066;-80
2022/09/22 10:33:22;;;;;;;6.60;3.17;;;22.30;41.80;;;;;;6150724;28;20117;-79
2022/09/22 10:36:26;;;;;;;6.38;2.22;;;22.80;41.30;;;;;;6147990;28;20035;-80
2022/09/22 10:39:32;;;;;;;4.97;2.10;;;23.10;40.60;;;;;;6134623;28;20046;-80
2022/09/22 10:42:40;;;;;;;5.45;2.33;;;23.30;39.90;;;;;;6144885;28;20133;-81
2022/09/22 10:45:52;;;;;;;8.77;2.65;;;23.50;39.70;;;;;;6163009;28;20046;-79
2022/09/22 10:49:16;;;;;;;7.47;2.20;;;23.60;39.40;;;;;;6127053;28;20027;-81
2022/09/22 10:52:41;;;;;;;6.57;1.70;;;23.80;39.20;;;;;;6146792;28;20098;-82
2022/09/22 10:55:47;;;;;;;4.07;2.25;;;24.10;38.90;;;;;;6143985;28;20485;-81
2022/09/22 10:59:15;;;;;;;4.80;2.10;;;24.40;38.50;;;;;;6148354;28;20047;-80
2022/09/22 11:02:28;;;;;;;7.55;2.35;;;24.60;38.30;;;;;;6153995;28;20424;-82
2022/09/22 11:13:23;;;;;;;8.35;2.38;;;25.10;37.40;;;;;;6089812;29;20076;-81
2022/09/22 11:16:39;;;;;;;7.82;1.95;;;25.30;37.30;;;;;;6078920;29;20644;-80
2022/09/22 11:19:59;;;;;;;8.65;2.13;;;25.50;37.20;;;;;;6088481;29;20348;-78
2022/09/22 11:23:22;;;;;;;4.22;2.08;;;25.80;36.70;;;;;;6086045;29;20032;-80
2022/09/22 11:26:40;;;;;;;7.63;1.95;;;26.00;36.10;;;;;;6084447;29;20105;-81
2022/09/22 11:30:12;;;;;;;6.07;1.67;;;26.30;35.90;;;;;;6092989;29;20048;-80
2022/09/22 11:33:30;;;;;;;4.72;1.88;;;26.30;35.60;;;;;;6085068;29;20072;-80
2022/09/22 11:36:49;;;;;;;5.20;2.00;;;26.60;35.30;;;;;;6077064;29;20039;-79
2022/09/22 11:40:24;;;;;;;11.88;2.15;;;26.90;34.60;;;;;;6059185;29;20111;-78
2022/09/22 11:43:38;;;;;;;7.88;1.70;;;27.20;33.90;;;;;;6092225;29;20036;-81
2022/09/22 11:46:54;;;;;;;6.75;2.00;;;27.40;33.40;;;;;;6140298;28;20035;-81
2022/09/22 11:50:30;;;;;;;6.13;2.53;;;27.60;33.30;;;;;;6159356;28;20038;-80
2022/09/22 11:53:42;;;;;;;7.18;2.60;;;27.90;33.00;;;;;;6061051;29;20534;-80
2022/09/22 11:56:54;;;;;;;5.15;1.65;;;28.20;32.70;;;;;;6035388;29;20030;-82
2022/09/22 12:00:01;;;;;;;3.78;1.80;;;28.60;32.40;;;;;;6091316;29;20047;-82
2022/09/22 12:03:42;;;;;;;7.80;1.80;;;29.00;32.10;;;;;;6057240;29;20392;-81
2022/09/22 12:06:48;;;;;;;4.78;1.50;;;29.30;31.70;;;;;;6044956;29;20148;-81
2022/09/22 12:09:58;;;;;;;4.38;1.80;;;29.70;31.10;;;;;;6073208;29;20048;-80
2022/09/22 12:13:00;;;;;;;15.52;1.80;;;30.10;30.10;;;;;;6055015;29;20507;-81
2022/09/22 12:16:07;;;;;;;35.03;2.20;;;30.50;29.90;;;;;;6076701;29;20093;-81
2022/09/22 12:19:46;;;;;;;11.55;2.58;;;31.00;29.50;;;;;;6071299;29;20040;-81
2022/09/22 12:23:00;;;;;;;5.18;1.40;;;31.60;28.90;;;;;;6002516;29;20113;-80
2022/09/22 12:26:31;;;;;;;7.53;1.33;;;32.10;27.90;;;;;;5987697;29;20500;-80
2022/09/22 12:29:32;;;;;;;3.47;1.08;;;32.40;27.60;;;;;;5982361;29;20037;-81
2022/09/22 12:32:39;;;;;;;7.97;1.50;;;32.80;26.90;;;;;;6008781;29;20041;-80
2022/09/22 12:35:42;;;;;;;7.53;1.10;;;33.10;26.40;;;;;;6008040;29;20045;-80
2022/09/22 12:38:45;;;;;;;6.68;1.48;;;33.40;26.20;;;;;;6007481;29;20433;-79
2022/09/22 12:41:51;;;;;;;6.53;1.35;;;33.70;25.60;;;;;;6043851;29;20128;-81
2022/09/22 12:45:20;;;;;;;10.45;1.17;;;34.00;25.20;;;;;;6024498;29;20045;-82
2022/09/22 12:48:26;;;;;;;3.20;1.20;;;34.30;25.00;;;;;;6005688;29;20073;-81
2022/09/22 12:51:31;;;;;;;7.03;1.17;;;34.70;24.50;;;;;;6016232;29;20095;-81
2022/09/22 12:54:36;;;;;;;6.60;1.17;;;34.20;24.70;;;;;;6028441;29;20551;-80
2022/09/22 12:57:50;;;;;;;8.50;1.50;;;33.30;25.90;;;;;;6076570;29;20111;-81
2022/09/22 13:00:54;;;;;;;10.25;1.30;;;33.10;25.80;;;;;;6074038;29;20118;-80
2022/09/22 13:04:12;;;;;;;7.22;1.75;;;33.60;25.20;;;;;;6089466;29;20041;-81
2022/09/22 13:07:32;;;;;;;4.18;1.02;;;33.70;24.90;;;;;;6138012;28;20043;-82
2022/09/22 13:10:33;;;;;;;8.57;1.30;;;33.50;25.00;;;;;;6161960;28;20078;-80
2022/09/22 13:13:38;;;;;;;9.55;1.58;;;33.60;24.70;;;;;;6176067;28;20040;-82
2022/09/22 13:16:41;;;;;;;4.53;1.73;;;33.30;25.00;;;;;;6157393;28;20342;-81
2022/09/22 13:19:54;;;;;;;7.80;1.65;;;33.40;24.80;;;;;;6125347;28;20485;-82
2022/09/22 13:23:10;;;;;;;4.00;1.15;;;33.70;24.60;;;;;;6157379;28;20062;-81
2022/09/22 13:26:12;;;;;;;3.38;1.00;;;33.10;24.80;;;;;;6134961;28;20043;-82
2022/09/22 13:29:16;;;;;;;1.90;1.10;;;32.20;25.60;;;;;;6151149;28;20117;-82
2022/09/22 13:32:25;;;;;;;2.45;1.20;;;31.40;26.50;;;;;;6153061;28;20157;-81
2022/09/22 13:35:39;;;;;;;2.58;1.58;;;30.50;27.30;;;;;;6149169;28;20112;-80
2022/09/22 13:38:53;;;;;;;4.03;1.67;;;29.70;28.10;;;;;;6135747;28;20039;-80
2022/09/22 13:42:30;;;;;;;6.35;1.80;;;29.10;28.70;;;;;;6160935;28;20058;-80
2022/09/22 13:45:31;;;;;;;5.38;1.25;;;28.60;29.40;;;;;;6172060;28;20038;-81
2022/09/22 13:48:36;;;;;;;2.88;1.15;;;28.10;29.90;;;;;;6188563;28;20682;-80
2022/09/22 13:51:38;;;;;;;3.80;0.90;;;27.80;30.30;;;;;;6181328;28;20031;-80
2022/09/22 13:54:40;;;;;;;3.47;1.15;;;27.50;30.80;;;;;;6173917;28;20146;-80
2022/09/22 13:57:42;;;;;;;1.33;1.23;;;27.30;31.20;;;;;;6155120;28;20158;-79
2022/09/22 14:00:54;;;;;;;3.45;1.42;;;27.10;31.50;;;;;;6169047;28;20070;-79
2022/09/22 14:03:55;;;;;;;5.80;1.27;;;26.90;31.80;;;;;;6155154;28;20046;-80
2022/09/22 14:07:01;;;;;;;12.63;1.55;;;26.80;32.10;;;;;;6145426;28;20045;-81
2022/09/22 14:10:04;;;;;;;7.00;1.38;;;26.60;32.40;;;;;;6149729;28;20704;-80
2022/09/22 14:13:38;;;;;;;2.15;1.02;;;26.50;32.70;;;;;;6150010;28;20062;-81
2022/09/22 14:16:53;;;;;;;5.10;1.33;;;26.40;33.00;;;;;;6168604;28;20103;-81
2022/09/22 14:20:04;;;;;;;5.30;1.20;;;26.30;33.20;;;;;;6149430;28;20039;-81
2022/09/22 14:23:30;;;;;;;1.85;1.20;;;26.20;33.20;;;;;;6150095;28;20384;-80
2022/09/22 14:26:37;;;;;;;2.60;1.20;;;26.20;33.30;;;;;;6150071;28;20036;-81
2022/09/22 14:29:39;;;;;;;8.25;1.52;;;26.10;33.30;;;;;;6150253;28;20126;-80
2022/09/22 14:32:47;;;;;;;5.22;1.20;;;26.10;33.40;;;;;;6148061;28;20573;-81
2022/09/22 14:35:50;;;;;;;4.60;1.33;;;26.00;33.50;;;;;;6148669;28;20046;-81
2022/09/22 14:39:00;;;;;;;6.20;1.70;;;26.00;33.60;;;;;;6157719;28;20472;-81
2022/09/22 14:42:16;;;;;;;9.52;1.45;;;26.00;33.70;;;;;;6176616;28;20030;-82
2022/09/22 14:45:19;;;;;;;4.28;1.13;;;26.00;33.70;;;;;;6173615;28;20057;-82
2022/09/22 14:48:27;;;;;;;1.58;1.17;;;26.00;33.70;;;;;;6183156;28;20041;-81
2022/09/22 14:51:31;;;;;;;7.40;1.65;;;26.00;33.70;;;;;;6174886;28;20065;-80
2022/09/22 14:54:34;;;;;;;2.45;1.20;;;25.90;33.50;;;;;;6153056;28;20086;-81
2022/09/22 14:57:35;;;;;;;5.75;1.05;;;25.90;33.60;;;;;;6134166;28;20039;-81
2022/09/22 15:04:27;;;;;;;10.98;1.20;;;25.90;33.50;;;;;;6149128;28;20101;-80
2022/09/22 15:07:33;;;;;;;3.95;0.93;;;25.90;33.40;;;;;;6132866;28;20031;-80
2022/09/22 15:10:36;;;;;;;4.57;1.08;;;25.90;33.40;;;;;;6149666;28;20235;-81
2022/09/22 15:13:37;;;;;;;3.53;1.27;;;25.90;33.40;;;;;;6146226;28;20043;-81
2022/09/22 15:16:42;;;;;;;10.65;1.40;;;25.90;33.30;;;;;;6155070;28;20035;-80
2022/09/22 15:19:43;;;;;;;2.90;1.10;;;25.90;33.20;;;;;;6149398;28;20127;-81
2022/09/22 15:22:45;;;;;;;4.82;0.95;;;25.90;33.00;;;;;;6148998;28;20031;-81
2022/09/22 15:25:48;;;;;;;4.53;0.90;;;25.90;32.90;;;;;;6145717;28;20095;-80
2022/09/22 15:28:51;;;;;;;2.47;1.13;;;25.90;32.80;;;;;;6153916;28;20073;-80
2022/09/22 15:31:52;;;;;;;0.98;0.90;;;25.90;32.90;;;;;;6159027;28;20039;-80
2022/09/22 15:34:54;;;;;;;5.47;1.45;;;25.90;33.00;;;;;;6149970;28;20139;-81
2022/09/22 15:37:55;;;;;;;5.43;1.40;;;25.90;32.90;;;;;;6145880;28;20567;-81
2022/09/22 15:40:57;;;;;;;1.83;1.00;;;25.90;32.80;;;;;;6158459;28;20031;-81
2022/09/22 15:43:58;;;;;;;1.02;0.93;;;25.90;32.80;;;;;;6166620;28;20068;-80
2022/09/22 15:46:59;;;;;;;2.00;1.10;;;25.90;32.70;;;;;;6170994;28;20043;-81
2022/09/22 15:50:01;;;;;;;3.47;1.15;;;25.90;32.70;;;;;;6157207;28;20099;-81
2022/09/22 15:53:02;;;;;;;4.40;1.50;;;25.80;32.80;;;;;;6146652;28;20114;-80
2022/09/22 15:56:18;;;;;;;1.90;1.10;;;25.90;32.70;;;;;;6154867;28;20043;-81
2022/09/22 15:59:24;;;;;;;0.88;0.82;;;25.90;32.60;;;;;;6153569;28;20034;-80
2022/09/22 16:02:28;;;;;;;3.58;0.82;;;25.90;32.70;;;;;;6162713;28;20035;-81
2022/09/22 16:05:32;;;;;;;6.32;1.38;;;25.90;32.50;;;;;;6169279;28;20062;-80
2022/09/22 16:08:39;;;;;;;2.72;1.17;;;25.90;32.60;;;;;;6171008;28;20051;-80
2022/09/22 16:11:40;;;;;;;2.78;1.17;;;25.90;32.70;;;;;;6148615;28;20031;-80
2022/09/22 16:14:41;;;;;;;3.03;1.10;;;25.90;32.30;;;;;;6132666;28;20058;-82
2022/09/22 16:17:44;;;;;;;5.05;1.00;;;25.90;32.40;;;;;;6153296;28;20353;-80
2022/09/22 16:20:45;;;;;;;9.32;1.25;;;25.90;32.40;;;;;;6178911;28;20061;-80
2022/09/22 16:23:47;;;;;;;6.13;1.02;;;25.80;32.40;;;;;;6190550;28;20371;-80
2022/09/22 16:26:48;;;;;;;4.82;1.00;;;25.70;32.60;;;;;;6172066;28;20057;-81
2022/09/22 16:29:49;;;;;;;8.20;1.05;;;25.70;32.70;;;;;;6166496;28;20039;-81
2022/09/22 16:32:50;;;;;;;5.40;1.73;;;25.50;33.00;;;;;;6150443;28;20071;-80
2022/09/22 16:35:52;;;;;;;1.88;0.90;;;25.50;33.40;;;;;;6152196;28;20043;-80
2022/09/22 16:38:54;;;;;;;4.65;1.95;;;25.40;33.60;;;;;;6149612;28;20102;-80